Time;durP1;ratioP1;P1;durP2;ratioP2;P2;SDS_P1;SDS_P2;PMS_P1;PMS_P2;Temp;Humidity;BMP_temperature;BMP_pressure;BME280_temperature;BME280_humidity;BME280_pressure;Samples;Min_cycle;Max_cycle;Signal;HPM_P1;HPM_P2
2024/04/01 00:00:40;;;;;;;33.20;9.20;;;;;;;13.64;51.03;97881.09;446958;1236;140115;-61
2024/04/01 00:10:44;;;;;;;36.30;10.00;;;;;;;13.53;51.45;97879.99;446903;1239;138883;-62
2024/04/01 00:20:56;;;;;;;28.00;7.80;;;;;;;13.36;51.82;97872.88;443285;1236;5121655;-61
2024/04/01 00:31:00;;;;;;;39.30;8.80;;;;;;;13.20;52.39;97868.30;447087;1235;138966;-66
2024/04/01 00:41:05;;;;;;;29.80;8.20;;;;;;;13.05;52.80;97871.61;446892;1239;139652;-65
2024/04/01 00:51:09;;;;;;;24.20;6.60;;;;;;;12.91;53.47;97871.77;446902;1239;138829;-59
2024/04/01 01:01:15;;;;;;;28.60;7.40;;;;;;;12.85;53.78;97879.54;447274;1235;138585;-60
2024/04/01 01:11:19;;;;;;;40.50;9.10;;;;;;;12.85;54.05;97884.08;446754;1235;138948;-61
2024/04/01 01:21:23;;;;;;;34.00;8.10;;;;;;;12.80;54.31;97888.13;446761;1235;138562;-61
2024/04/01 01:31:26;;;;;;;32.00;7.60;;;;;;;12.64;54.74;97893.73;447145;1239;138520;-60
2024/04/01 01:41:29;;;;;;;25.50;7.20;;;;;;;12.49;55.29;97887.51;447297;1239;139226;-60
2024/04/01 01:51:35;;;;;;;22.30;5.70;;;;;;;12.30;55.84;97882.19;446690;1239;139496;-59
2024/04/01 02:01:38;;;;;;;34.50;7.10;;;;;;;12.12;56.45;97878.29;446875;1236;138471;-60
2024/04/01 02:11:41;;;;;;;24.80;7.20;;;;;;;11.95;57.04;97876.59;447033;1239;139030;-66
2024/04/01 02:21:47;;;;;;;26.40;7.50;;;;;;;11.80;57.57;97879.81;447670;1239;138648;-65
2024/04/01 02:31:50;;;;;;;33.60;7.00;;;;;;;11.67;58.21;97867.98;447084;1239;139136;-64
2024/04/01 02:41:54;;;;;;;25.40;7.90;;;;;;;11.61;58.87;97858.98;446861;1239;138717;-66
2024/04/01 02:51:57;;;;;;;24.40;6.30;;;;;;;11.59;59.47;97854.06;447037;1235;139400;-61
2024/04/01 03:02:01;;;;;;;30.40;7.70;;;;;;;11.60;59.96;97850.30;447138;1239;138605;-62
2024/04/01 03:12:05;;;;;;;22.60;5.70;;;;;;;11.59;60.35;97849.70;447289;1235;138988;-59
2024/04/01 03:22:11;;;;;;;28.00;5.40;;;;;;;11.53;60.71;97848.88;446907;1236;139528;-62
2024/04/01 03:32:17;;;;;;;20.30;6.10;;;;;;;11.47;61.28;97842.60;448448;1236;138525;-65
2024/04/01 03:42:20;;;;;;;23.70;6.60;;;;;;;11.38;61.60;97844.28;447467;1236;139159;-66
2024/04/01 03:52:23;;;;;;;25.00;5.20;;;;;;;11.33;62.15;97848.15;447109;1236;138652;-67
2024/04/01 04:02:28;;;;;;;26.40;6.90;;;;;;;11.29;62.59;97851.52;447413;1239;138855;-60
2024/04/01 04:12:31;;;;;;;32.70;5.40;;;;;;;11.28;63.02;97852.08;447222;1239;138899;-60
2024/04/01 04:22:34;;;;;;;27.90;7.60;;;;;;;11.30;63.35;97849.41;447115;1239;139877;-67
2024/04/01 04:32:40;;;;;;;32.50;7.30;;;;;;;11.34;63.56;97840.49;447146;1239;138886;-65
2024/04/01 04:42:44;;;;;;;20.10;5.60;;;;;;;11.51;63.81;97859.24;447337;1235;138823;-60
2024/04/01 04:52:49;;;;;;;28.50;5.70;;;;;;;11.84;63.83;97869.80;447481;1236;139082;-59
2024/04/01 05:02:53;;;;;;;25.10;6.00;;;;;;;12.18;63.43;97862.88;447201;1235;138468;-59
2024/04/01 05:12:59;;;;;;;23.20;5.70;;;;;;;12.59;63.24;97849.83;447204;1239;138548;-59
2024/04/01 05:23:02;;;;;;;27.70;6.30;;;;;;;13.30;62.65;97839.18;447238;1239;138717;-61
2024/04/01 05:33:08;;;;;;;24.50;6.30;;;;;;;14.29;61.50;97856.20;447483;1239;138558;-60
2024/04/01 05:43:11;;;;;;;27.00;10.50;;;;;;;15.47;59.88;97848.09;447742;1239;138502;-68
2024/04/01 05:53:15;;;;;;;22.80;9.40;;;;;;;18.55;58.57;97840.59;448348;1239;138665;-68
2024/04/01 06:03:22;;;;;;;45.70;19.50;;;;;;;19.72;52.04;97829.09;447238;1239;139044;-65
2024/04/01 06:13:25;;;;;;;34.60;14.10;;;;;;;18.45;51.10;97817.83;447507;1239;139145;-64
2024/04/01 06:23:28;;;;;;;26.50;5.00;;;;;;;17.46;51.57;97817.30;447843;1239;138943;-65
2024/04/01 06:33:33;;;;;;;21.50;5.70;;;;;;;16.71;52.32;97814.45;448134;1239;139124;-66
2024/04/01 06:43:36;;;;;;;19.40;7.10;;;;;;;16.23;53.19;97832.70;448211;1239;138981;-66
2024/04/01 06:53:42;;;;;;;21.40;5.90;;;;;;;16.02;54.11;97846.61;447777;1239;138999;-62
2024/04/01 07:03:49;;;;;;;;;;;;;;;16.19;54.60;97815.89;448685;1239;138566;-62
2024/04/01 07:13:52;;;;;;;17.60;6.70;;;;;;;16.33;54.59;97810.91;448809;1239;124905;-65
2024/04/01 07:23:55;;;;;;;20.70;6.80;;;;;;;16.50;54.85;97798.23;447952;1239;138616;-65
2024/04/01 07:33:58;;;;;;;22.00;7.10;;;;;;;17.40;55.07;97794.31;448187;1239;139073;-62
2024/04/01 07:44:02;;;;;;;24.50;7.50;;;;;;;19.16;53.61;97792.73;447969;1235;139610;-62
2024/04/01 07:54:07;;;;;;;29.30;6.00;;;;;;;19.59;50.96;97812.19;448047;1236;139510;-66
2024/04/01 08:04:13;;;;;;;25.90;6.60;;;;;;;19.77;50.88;97828.80;447701;1239;139526;-65
2024/04/01 08:14:19;;;;;;;22.70;6.20;;;;;;;20.51;49.63;97824.73;448185;1239;138712;-65
2024/04/01 08:24:23;;;;;;;28.30;8.40;;;;;;;20.41;49.13;97835.77;449337;1235;138453;-65
2024/04/01 08:34:29;;;;;;;23.70;7.50;;;;;;;23.52;48.43;97821.20;447664;1239;138959;-67
2024/04/01 08:44:37;;;;;;;27.00;7.30;;;;;;;23.32;45.76;97806.75;447919;1236;138643;-67
2024/04/01 08:54:41;;;;;;;36.20;7.60;;;;;;;24.49;44.83;97789.24;447933;1239;139237;-68
2024/04/01 09:04:47;;;;;;;29.00;7.70;;;;;;;24.41;43.52;97781.46;448035;1235;139578;-69
2024/04/01 09:14:50;;;;;;;30.20;8.50;;;;;;;24.90;43.23;97756.06;448069;1237;140084;-68
2024/04/01 09:24:55;;;;;;;30.30;9.60;;;;;;;25.29;41.95;97743.75;447515;1239;139202;-69
2024/04/01 09:35:02;;;;;;;32.90;8.20;;;;;;;25.18;41.58;97718.24;448179;1239;139328;-61
2024/04/01 09:45:08;;;;;;;32.00;8.10;;;;;;;24.98;40.78;97705.73;448378;1237;139682;-61
2024/04/01 09:55:20;;;;;;;31.30;8.00;;;;;;;25.06;40.62;97698.01;448144;1239;138674;-60
2024/04/01 10:06:01;;;;;;;34.50;6.90;;;;;;;24.99;40.12;97702.48;447874;1239;139079;-60
2024/04/01 10:16:30;;;;;;;32.50;9.00;;;;;;;24.93;40.14;97702.09;447706;1239;139624;-61
2024/04/01 10:27:05;;;;;;;32.70;9.90;;;;;;;24.58;40.04;97703.62;448282;1239;138532;-68
2024/04/01 10:37:30;;;;;;;32.20;8.50;;;;;;;24.42;40.29;97711.76;447678;1239;139203;-67
2024/04/01 10:48:00;;;;;;;36.10;8.20;;;;;;;24.40;40.31;97698.79;448374;1239;139038;-60
2024/04/01 10:58:37;;;;;;;29.40;6.50;;;;;;;24.27;40.25;97686.11;448067;1239;139271;-61
2024/04/01 11:08:56;;;;;;;24.50;6.90;;;;;;;24.32;40.23;97671.48;448463;1239;138728;-61
2024/04/01 11:19:24;;;;;;;32.20;7.80;;;;;;;24.50;40.12;97670.20;447723;1239;140403;-68
2024/04/01 11:29:45;;;;;;;29.70;7.00;;;;;;;24.68;39.86;97660.70;447895;1239;139004;-69
2024/04/01 11:39:53;;;;;;;36.10;10.20;;;;;;;24.45;39.59;97646.49;447654;1239;139313;-68
2024/04/01 11:49:58;;;;;;;32.50;8.50;;;;;;;24.11;39.72;97620.36;447991;1239;139157;-68
2024/04/01 12:00:07;;;;;;;32.40;7.20;;;;;;;23.75;39.90;97602.01;447917;1239;139072;-62
2024/04/01 12:10:14;;;;;;;32.60;8.30;;;;;;;23.78;40.30;97603.73;448149;1239;139617;-62
2024/04/01 12:20:18;;;;;;;35.10;8.40;;;;;;;23.56;40.17;97585.44;444571;1236;5090354;-65
2024/04/01 12:30:26;;;;;;;39.70;7.40;;;;;;;23.36;40.39;97580.27;447754;1239;139541;-65
2024/04/01 12:40:31;;;;;;;38.40;9.50;;;;;;;23.30;40.58;97585.19;448172;1239;139035;-62
2024/04/01 12:50:35;;;;;;;41.20;9.70;;;;;;;23.29;40.68;97577.91;448395;1239;139100;-62
2024/04/01 13:00:46;;;;;;;44.20;11.60;;;;;;;23.41;40.86;97569.62;447813;1239;138447;-61
2024/04/01 13:10:55;;;;;;;27.10;7.10;;;;;;;23.49;40.81;97565.02;447348;1239;138765;-60
2024/04/01 13:21:08;;;;;;;32.60;9.90;;;;;;;23.52;41.33;97562.55;447728;1240;139250;-60
2024/04/01 13:31:28;;;;;;;41.50;9.10;;;;;;;23.34;41.44;97555.60;447378;1239;138451;-60
2024/04/01 13:41:39;;;;;;;36.40;10.50;;;;;;;23.18;41.78;97545.59;447625;1235;138618;-69
2024/04/01 13:52:06;;;;;;;38.00;8.60;;;;;;;23.09;41.91;97530.13;448622;1239;139111;-60
2024/04/01 14:02:25;;;;;;;34.10;8.60;;;;;;;23.13;42.13;97509.33;447566;1235;138558;-67
2024/04/01 14:12:39;;;;;;;39.70;9.80;;;;;;;23.29;42.11;97494.25;447421;1239;139181;-65
2024/04/01 14:22:45;;;;;;;26.70;7.70;;;;;;;23.48;41.59;97471.39;447387;1235;139662;-61
2024/04/01 14:32:48;;;;;;;27.80;7.60;;;;;;;23.67;40.47;97452.30;447754;1240;139218;-68
2024/04/01 14:42:53;;;;;;;25.60;8.10;;;;;;;23.81;39.60;97453.50;447634;1239;138746;-65
2024/04/01 14:52:56;;;;;;;31.30;7.90;;;;;;;23.57;38.84;97452.30;447396;1238;139087;-64
2024/04/01 15:03:04;;;;;;;29.30;7.90;;;;;;;23.42;38.91;97460.38;447519;1239;138481;-63
2024/04/01 15:13:08;;;;;;;31.30;9.10;;;;;;;23.38;38.86;97461.11;447804;1240;138549;-64
2024/04/01 15:23:12;;;;;;;23.10;7.20;;;;;;;23.33;38.62;97453.25;448273;1239;138966;-64
2024/04/01 15:33:16;;;;;;;24.60;7.40;;;;;;;23.30;38.98;97447.74;448103;1239;138492;-59
2024/04/01 15:43:19;;;;;;;24.90;7.70;;;;;;;23.21;39.38;97432.81;447601;1240;139209;-59
2024/04/01 15:53:26;;;;;;;25.50;7.90;;;;;;;23.05;39.47;97425.23;448239;1240;139427;-59
2024/04/01 16:03:30;;;;;;;27.80;8.90;;;;;;;22.87;39.64;97431.23;447061;1239;139095;-59
2024/04/01 16:13:37;;;;;;;29.40;7.50;;;;;;;22.64;39.87;97436.95;448710;1239;138949;-58
2024/04/01 16:23:43;;;;;;;31.50;8.70;;;;;;;22.38;40.47;97455.25;447649;1235;139356;-62
2024/04/01 16:33:48;;;;;;;37.10;8.80;;;;;;;22.08;40.88;97460.09;450696;1238;138974;-67
2024/04/01 16:43:53;;;;;;;30.00;8.90;;;;;;;21.78;41.28;97463.67;456337;1235;140110;-67
2024/04/01 16:53:58;;;;;;;30.90;9.70;;;;;;;21.43;41.97;97463.83;461790;1235;139797;-62
2024/04/01 17:04:01;;;;;;;36.30;8.90;;;;;;;21.10;42.68;97465.38;461826;1235;139123;-71
2024/04/01 17:14:06;;;;;;;37.80;8.80;;;;;;;20.78;43.14;97461.14;462002;1235;138413;-68
2024/04/01 17:24:11;;;;;;;28.80;8.00;;;;;;;20.49;43.71;97455.20;461802;1235;139559;-60
2024/04/01 17:34:15;;;;;;;35.70;10.70;;;;;;;20.21;44.25;97453.81;461722;1235;139087;-59
2024/04/01 17:44:20;;;;;;;29.80;8.70;;;;;;;19.94;44.73;97453.59;461904;1235;137724;-60
2024/04/01 17:54:26;;;;;;;35.00;8.90;;;;;;;19.68;45.34;97462.80;459559;1235;139195;-68
2024/04/01 18:04:29;;;;;;;36.90;10.30;;;;;;;19.46;45.99;97463.02;461817;1235;139749;-62
2024/04/01 18:14:33;;;;;;;33.40;10.70;;;;;;;19.35;46.40;97469.67;462036;1235;139216;-61
2024/04/01 18:24:39;;;;;;;29.90;9.40;;;;;;;19.30;46.60;97487.38;461884;1235;139977;-60
2024/04/01 18:34:43;;;;;;;32.90;9.20;;;;;;;19.23;46.81;97502.86;461134;1235;139458;-59
2024/04/01 18:44:46;;;;;;;35.40;9.70;;;;;;;19.38;46.92;97505.63;455299;1236;139091;-61
2024/04/01 18:54:50;;;;;;;41.10;8.50;;;;;;;19.56;46.69;97490.36;448144;1235;138550;-58
2024/04/01 19:04:54;;;;;;;35.90;9.00;;;;;;;19.51;46.57;97476.40;461856;1235;138560;-68
2024/04/01 19:14:57;;;;;;;43.40;9.80;;;;;;;19.43;46.66;97466.64;461864;1235;140418;-68
2024/04/01 19:25:00;;;;;;;45.70;10.90;;;;;;;19.28;46.83;97459.64;461740;1235;139358;-63
2024/04/01 19:35:04;;;;;;;37.30;5.70;;;;;;;19.12;47.91;97520.45;461715;1235;138842;-60
2024/04/01 19:45:08;;;;;;;18.80;4.50;;;;;;;18.81;50.26;97522.04;461894;1235;138943;-61
2024/04/01 19:55:14;;;;;;;19.90;4.60;;;;;;;18.32;52.22;97535.08;461682;1235;138882;-61
2024/04/01 20:05:18;;;;;;;10.40;3.10;;;;;;;17.74;54.21;97531.70;450525;1239;139512;-59
2024/04/01 20:15:25;;;;;;;15.00;5.10;;;;;;;17.39;56.04;97534.02;461837;1235;138570;-65
2024/04/01 20:25:31;;;;;;;14.40;4.20;;;;;;;16.96;57.76;97556.55;461941;1236;138877;-61
2024/04/01 20:35:36;;;;;;;5.00;2.30;;;;;;;16.60;59.82;97550.89;461917;1235;139461;-59
2024/04/01 20:45:40;;;;;;;7.30;2.50;;;;;;;16.37;61.21;97566.81;461902;1235;138872;-60
2024/04/01 20:55:43;;;;;;;11.70;2.80;;;;;;;16.05;62.51;97567.40;461997;1235;139333;-69
2024/04/01 21:05:48;;;;;;;6.90;2.40;;;;;;;15.82;63.83;97565.71;461893;1235;139184;-59
2024/04/01 21:15:52;;;;;;;5.10;1.90;;;;;;;15.60;65.11;97571.98;461860;1235;139809;-73
2024/04/01 21:25:56;;;;;;;5.50;1.80;;;;;;;15.31;66.40;97583.42;462184;1235;139640;-65
2024/04/01 21:35:59;;;;;;;4.20;1.80;;;;;;;15.13;67.70;97568.23;454144;1235;139983;-59
2024/04/01 21:46:04;;;;;;;8.10;2.60;;;;;;;15.09;68.84;97586.77;450222;1236;140223;-70
2024/04/01 21:56:07;;;;;;;4.60;1.90;;;;;;;15.00;69.71;97597.69;461680;1235;139598;-81
2024/04/01 22:06:10;;;;;;;10.80;2.50;;;;;;;14.85;70.53;97636.40;461574;1235;139325;-66
2024/04/01 22:16:13;;;;;;;6.20;1.50;;;;;;;14.69;71.31;97632.86;461593;1235;139930;-58
2024/04/01 22:26:17;;;;;;;2.40;2.00;;;;;;;14.51;71.55;97620.98;461919;1235;138920;-71
2024/04/01 22:36:20;;;;;;;3.20;1.00;;;;;;;14.30;72.04;97625.52;458432;1235;139525;-61
2024/04/01 22:46:24;;;;;;;6.10;2.20;;;;;;;14.16;72.38;97611.71;447728;1239;139797;-69
2024/04/01 22:56:29;;;;;;;7.80;1.20;;;;;;;13.93;72.65;97630.74;447361;1235;140089;-69
2024/04/01 23:06:32;;;;;;;6.50;1.50;;;;;;;13.80;73.37;97641.32;449466;1239;139597;-62
2024/04/01 23:16:36;;;;;;;5.10;1.60;;;;;;;13.65;73.90;97626.20;447593;1236;139569;-62
2024/04/01 23:26:40;;;;;;;5.10;1.10;;;;;;;13.52;74.56;97678.05;448781;1239;139229;-62
2024/04/01 23:36:43;;;;;;;4.50;1.70;;;;;;;13.34;75.58;97704.17;447995;1235;138915;-61
2024/04/01 23:46:47;;;;;;;9.00;2.00;;;;;;;13.29;76.61;97658.80;447995;1239;139670;-69
2024/04/01 23:56:50;;;;;;;4.30;2.40;;;;;;;13.24;76.90;97645.33;449348;1235;138082;-69
